sensor_id;sensor_type;location;lat;lon;timestamp;temperature;humidity
15543;DHT22;7873;52.230;12.856;2023-06-24T00:02:20;24.90;56.50
15543;DHT22;7873;52.230;12.856;2023-06-24T00:04:49;24.80;56.40
15543;DHT22;7873;52.230;12.856;2023-06-24T00:07:16;24.80;56.40
15543;DHT22;7873;52.230;12.856;2023-06-24T00:09:43;24.90;56.40
15543;DHT22;7873;52.230;12.856;2023-06-24T00:12:09;24.90;56.20
15543;DHT22;7873;52.230;12.856;2023-06-24T00:14:36;24.90;56.20
15543;DHT22;7873;52.230;12.856;2023-06-24T00:17:05;24.90;56.20
15543;DHT22;7873;52.230;12.856;2023-06-24T00:19:32;24.90;56.30
15543;DHT22;7873;52.230;12.856;2023-06-24T00:21:59;24.90;56.20
15543;DHT22;7873;52.230;12.856;2023-06-24T00:24:30;24.90;56.20
15543;DHT22;7873;52.230;12.856;2023-06-24T00:26:56;24.90;56.10
15543;DHT22;7873;52.230;12.856;2023-06-24T00:29:23;24.90;56.10
15543;DHT22;7873;52.230;12.856;2023-06-24T00:31:50;24.90;56.10
15543;DHT22;7873;52.230;12.856;2023-06-24T00:34:18;24.90;56.10
15543;DHT22;7873;52.230;12.856;2023-06-24T00:36:45;24.80;56.30
15543;DHT22;7873;52.230;12.856;2023-06-24T00:39:12;24.80;56.20
15543;DHT22;7873;52.230;12.856;2023-06-24T00:41:39;24.90;56.20
15543;DHT22;7873;52.230;12.856;2023-06-24T00:44:06;24.80;56.10
15543;DHT22;7873;52.230;12.856;2023-06-24T00:46:33;24.80;56.10
15543;DHT22;7873;52.230;12.856;2023-06-24T00:49:00;24.90;56.10
15543;DHT22;7873;52.230;12.856;2023-06-24T00:51:29;24.80;56.10
15543;DHT22;7873;52.230;12.856;2023-06-24T00:53:57;24.90;56.10
15543;DHT22;7873;52.230;12.856;2023-06-24T00:56:25;24.90;56.00
15543;DHT22;7873;52.230;12.856;2023-06-24T00:58:57;24.80;56.10
15543;DHT22;7873;52.230;12.856;2023-06-24T01:01:27;24.80;55.90
15543;DHT22;7873;52.230;12.856;2023-06-24T01:03:57;24.80;56.10
15543;DHT22;7873;52.230;12.856;2023-06-24T01:06:24;24.80;56.00
15543;DHT22;7873;52.230;12.856;2023-06-24T01:08:55;24.80;56.10
15543;DHT22;7873;52.230;12.856;2023-06-24T01:11:22;24.80;55.90
15543;DHT22;7873;52.230;12.856;2023-06-24T01:13:49;24.80;55.90
15543;DHT22;7873;52.230;12.856;2023-06-24T01:16:18;24.80;55.90
15543;DHT22;7873;52.230;12.856;2023-06-24T01:18:53;24.80;55.90
15543;DHT22;7873;52.230;12.856;2023-06-24T01:21:30;24.80;55.90
15543;DHT22;7873;52.230;12.856;2023-06-24T01:24:11;24.80;55.90
15543;DHT22;7873;52.230;12.856;2023-06-24T01:26:52;24.70;56.00
15543;DHT22;7873;52.230;12.856;2023-06-24T01:29:48;24.70;56.00
15543;DHT22;7873;52.230;12.856;2023-06-24T01:32:24;24.80;55.70
15543;DHT22;7873;52.230;12.856;2023-06-24T01:34:55;24.80;55.70
15543;DHT22;7873;52.230;12.856;2023-06-24T01:37:25;24.80;55.70
15543;DHT22;7873;52.230;12.856;2023-06-24T01:39:57;24.80;55.70
15543;DHT22;7873;52.230;12.856;2023-06-24T01:42:35;24.80;55.70
15543;DHT22;7873;52.230;12.856;2023-06-24T01:45:04;24.80;55.70
15543;DHT22;7873;52.230;12.856;2023-06-24T01:47:34;24.80;55.60
15543;DHT22;7873;52.230;12.856;2023-06-24T01:50:02;24.80;55.60
15543;DHT22;7873;52.230;12.856;2023-06-24T01:52:30;24.80;55.70
15543;DHT22;7873;52.230;12.856;2023-06-24T01:55:01;24.80;55.70
15543;DHT22;7873;52.230;12.856;2023-06-24T01:57:30;24.80;55.60
15543;DHT22;7873;52.230;12.856;2023-06-24T01:59:59;24.80;55.60
15543;DHT22;7873;52.230;12.856;2023-06-24T02:02:31;24.80;55.50
15543;DHT22;7873;52.230;12.856;2023-06-24T02:05:00;24.80;55.50
15543;DHT22;7873;52.230;12.856;2023-06-24T02:07:28;24.80;55.50
15543;DHT22;7873;52.230;12.856;2023-06-24T02:09:56;24.80;55.50
15543;DHT22;7873;52.230;12.856;2023-06-24T02:12:25;24.80;55.60
15543;DHT22;7873;52.230;12.856;2023-06-24T02:14:54;24.80;55.60
15543;DHT22;7873;52.230;12.856;2023-06-24T02:17:22;24.70;55.50
15543;DHT22;7873;52.230;12.856;2023-06-24T02:19:51;24.80;55.50
15543;DHT22;7873;52.230;12.856;2023-06-24T02:22:20;24.80;55.50
15543;DHT22;7873;52.230;12.856;2023-06-24T02:24:47;24.80;55.30
15543;DHT22;7873;52.230;12.856;2023-06-24T02:27:15;24.80;55.20
15543;DHT22;7873;52.230;12.856;2023-06-24T02:29:43;24.80;55.30
15543;DHT22;7873;52.230;12.856;2023-06-24T02:32:11;24.70;55.30
15543;DHT22;7873;52.230;12.856;2023-06-24T02:34:38;24.80;55.40
15543;DHT22;7873;52.230;12.856;2023-06-24T02:37:05;24.70;55.30
15543;DHT22;7873;52.230;12.856;2023-06-24T02:39:33;24.80;55.20
15543;DHT22;7873;52.230;12.856;2023-06-24T02:42:00;24.70;55.20
15543;DHT22;7873;52.230;12.856;2023-06-24T02:44:27;24.70;55.20
15543;DHT22;7873;52.230;12.856;2023-06-24T02:46:53;24.70;55.20
15543;DHT22;7873;52.230;12.856;2023-06-24T02:49:22;24.70;55.20
15543;DHT22;7873;52.230;12.856;2023-06-24T02:51:49;24.80;55.20
15543;DHT22;7873;52.230;12.856;2023-06-24T02:54:16;24.70;55.10
15543;DHT22;7873;52.230;12.856;2023-06-24T02:56:44;24.70;55.00
15543;DHT22;7873;52.230;12.856;2023-06-24T02:59:13;24.70;55.00
15543;DHT22;7873;52.230;12.856;2023-06-24T03:01:40;24.70;55.00
15543;DHT22;7873;52.230;12.856;2023-06-24T03:04:10;24.70;55.00
15543;DHT22;7873;52.230;12.856;2023-06-24T03:06:37;24.70;54.90
15543;DHT22;7873;52.230;12.856;2023-06-24T03:09:05;24.70;55.00
15543;DHT22;7873;52.230;12.856;2023-06-24T03:11:39;24.70;54.90
15543;DHT22;7873;52.230;12.856;2023-06-24T03:14:08;24.70;54.90
15543;DHT22;7873;52.230;12.856;2023-06-24T03:16:35;24.70;54.90
15543;DHT22;7873;52.230;12.856;2023-06-24T03:19:03;24.70;54.90
15543;DHT22;7873;52.230;12.856;2023-06-24T03:21:30;24.60;54.90
15543;DHT22;7873;52.230;12.856;2023-06-24T03:23:57;24.70;54.90
15543;DHT22;7873;52.230;12.856;2023-06-24T03:26:25;24.60;54.80
15543;DHT22;7873;52.230;12.856;2023-06-24T03:28:57;24.70;54.80
15543;DHT22;7873;52.230;12.856;2023-06-24T03:31:25;24.60;54.70
15543;DHT22;7873;52.230;12.856;2023-06-24T03:33:52;24.70;54.80
15543;DHT22;7873;52.230;12.856;2023-06-24T03:36:18;24.60;54.60
15543;DHT22;7873;52.230;12.856;2023-06-24T03:38:45;24.60;54.70
15543;DHT22;7873;52.230;12.856;2023-06-24T03:41:12;24.60;54.80
15543;DHT22;7873;52.230;12.856;2023-06-24T03:43:39;24.60;54.70
15543;DHT22;7873;52.230;12.856;2023-06-24T03:46:07;24.60;54.70
15543;DHT22;7873;52.230;12.856;2023-06-24T03:48:36;24.60;54.60
15543;DHT22;7873;52.230;12.856;2023-06-24T03:51:03;24.60;54.60
15543;DHT22;7873;52.230;12.856;2023-06-24T03:53:30;24.60;54.60
15543;DHT22;7873;52.230;12.856;2023-06-24T03:55:58;24.60;54.60
15543;DHT22;7873;52.230;12.856;2023-06-24T03:58:24;24.60;54.60
15543;DHT22;7873;52.230;12.856;2023-06-24T04:00:51;24.60;54.60
15543;DHT22;7873;52.230;12.856;2023-06-24T04:03:21;24.60;54.50
15543;DHT22;7873;52.230;12.856;2023-06-24T04:05:49;24.60;54.50
15543;DHT22;7873;52.230;12.856;2023-06-24T04:08:15;24.60;54.50
15543;DHT22;7873;52.230;12.856;2023-06-24T04:10:42;24.60;54.50
15543;DHT22;7873;52.230;12.856;2023-06-24T04:13:09;24.60;54.50
15543;DHT22;7873;52.230;12.856;2023-06-24T04:15:36;24.60;54.40
15543;DHT22;7873;52.230;12.856;2023-06-24T04:18:02;24.60;54.50
15543;DHT22;7873;52.230;12.856;2023-06-24T04:20:29;24.60;54.40
15543;DHT22;7873;52.230;12.856;2023-06-24T04:22:57;24.60;54.50
15543;DHT22;7873;52.230;12.856;2023-06-24T04:25:24;24.60;54.50
15543;DHT22;7873;52.230;12.856;2023-06-24T04:27:51;24.60;54.60
15543;DHT22;7873;52.230;12.856;2023-06-24T04:30:17;24.50;54.80
15543;DHT22;7873;52.230;12.856;2023-06-24T04:32:44;24.40;55.30
15543;DHT22;7873;52.230;12.856;2023-06-24T04:35:11;24.30;55.30
15543;DHT22;7873;52.230;12.856;2023-06-24T04:37:37;24.30;55.10
15543;DHT22;7873;52.230;12.856;2023-06-24T04:40:06;24.40;55.40
15543;DHT22;7873;52.230;12.856;2023-06-24T04:42:33;24.30;55.50
15543;DHT22;7873;52.230;12.856;2023-06-24T04:45:00;24.30;55.60
15543;DHT22;7873;52.230;12.856;2023-06-24T04:47:30;24.50;55.50
15543;DHT22;7873;52.230;12.856;2023-06-24T04:49:57;24.60;55.80
15543;DHT22;7873;52.230;12.856;2023-06-24T04:52:23;24.70;56.10
15543;DHT22;7873;52.230;12.856;2023-06-24T04:54:50;24.80;55.80
15543;DHT22;7873;52.230;12.856;2023-06-24T04:57:24;24.90;55.90
15543;DHT22;7873;52.230;12.856;2023-06-24T04:59:52;24.70;56.10
15543;DHT22;7873;52.230;12.856;2023-06-24T05:02:19;24.80;55.70
15543;DHT22;7873;52.230;12.856;2023-06-24T05:04:46;24.90;55.40
15543;DHT22;7873;52.230;12.856;2023-06-24T05:07:13;24.90;55.30
15543;DHT22;7873;52.230;12.856;2023-06-24T05:09:39;24.80;55.50
15543;DHT22;7873;52.230;12.856;2023-06-24T05:12:06;24.80;55.70
15543;DHT22;7873;52.230;12.856;2023-06-24T05:14:35;24.80;55.20
15543;DHT22;7873;52.230;12.856;2023-06-24T05:17:03;24.80;55.30
15543;DHT22;7873;52.230;12.856;2023-06-24T05:19:30;24.90;55.50
15543;DHT22;7873;52.230;12.856;2023-06-24T05:21:56;24.90;55.20
15543;DHT22;7873;52.230;12.856;2023-06-24T05:24:24;24.90;55.00
15543;DHT22;7873;52.230;12.856;2023-06-24T05:26:51;25.00;54.90
15543;DHT22;7873;52.230;12.856;2023-06-24T05:29:18;25.00;55.00
15543;DHT22;7873;52.230;12.856;2023-06-24T05:31:46;24.90;55.10
15543;DHT22;7873;52.230;12.856;2023-06-24T05:34:13;24.80;55.10
15543;DHT22;7873;52.230;12.856;2023-06-24T05:36:39;24.80;54.90
15543;DHT22;7873;52.230;12.856;2023-06-24T05:39:06;24.90;54.80
15543;DHT22;7873;52.230;12.856;2023-06-24T05:41:33;24.90;54.40
15543;DHT22;7873;52.230;12.856;2023-06-24T05:44:01;25.00;54.50
15543;DHT22;7873;52.230;12.856;2023-06-24T05:46:28;25.00;54.30
15543;DHT22;7873;52.230;12.856;2023-06-24T05:48:56;24.80;55.10
15543;DHT22;7873;52.230;12.856;2023-06-24T05:51:22;24.90;54.70
15543;DHT22;7873;52.230;12.856;2023-06-24T05:53:49;25.00;54.50
15543;DHT22;7873;52.230;12.856;2023-06-24T05:56:16;24.90;54.40
15543;DHT22;7873;52.230;12.856;2023-06-24T05:58:43;24.80;54.80
15543;DHT22;7873;52.230;12.856;2023-06-24T06:01:09;24.70;55.40
15543;DHT22;7873;52.230;12.856;2023-06-24T06:03:36;24.60;55.50
15543;DHT22;7873;52.230;12.856;2023-06-24T06:06:04;24.70;55.60
15543;DHT22;7873;52.230;12.856;2023-06-24T06:08:32;24.80;55.50
15543;DHT22;7873;52.230;12.856;2023-06-24T06:10:59;24.90;55.20
15543;DHT22;7873;52.230;12.856;2023-06-24T06:13:27;24.90;55.40
15543;DHT22;7873;52.230;12.856;2023-06-24T06:15:54;24.90;55.40
15543;DHT22;7873;52.230;12.856;2023-06-24T06:18:20;24.90;55.50
15543;DHT22;7873;52.230;12.856;2023-06-24T06:20:47;25.00;55.60
15543;DHT22;7873;52.230;12.856;2023-06-24T06:23:15;25.00;55.50
15543;DHT22;7873;52.230;12.856;2023-06-24T06:25:42;24.90;55.90
15543;DHT22;7873;52.230;12.856;2023-06-24T06:28:09;24.80;55.70
15543;DHT22;7873;52.230;12.856;2023-06-24T06:30:36;24.60;56.10
15543;DHT22;7873;52.230;12.856;2023-06-24T06:33:02;24.50;56.00
15543;DHT22;7873;52.230;12.856;2023-06-24T06:35:29;24.40;56.10
15543;DHT22;7873;52.230;12.856;2023-06-24T06:37:56;24.30;56.80
15543;DHT22;7873;52.230;12.856;2023-06-24T06:40:25;24.30;57.10
15543;DHT22;7873;52.230;12.856;2023-06-24T06:42:53;24.30;56.90
15543;DHT22;7873;52.230;12.856;2023-06-24T06:45:20;24.30;56.60
15543;DHT22;7873;52.230;12.856;2023-06-24T06:47:48;24.20;56.90
15543;DHT22;7873;52.230;12.856;2023-06-24T06:50:15;24.10;56.90
15543;DHT22;7873;52.230;12.856;2023-06-24T06:52:42;24.10;57.10
15543;DHT22;7873;52.230;12.856;2023-06-24T06:55:09;24.10;57.40
15543;DHT22;7873;52.230;12.856;2023-06-24T06:57:37;24.10;57.00
15543;DHT22;7873;52.230;12.856;2023-06-24T07:00:04;23.60;56.80
15543;DHT22;7873;52.230;12.856;2023-06-24T07:02:32;23.80;57.20
15543;DHT22;7873;52.230;12.856;2023-06-24T07:04:59;23.80;57.20
15543;DHT22;7873;52.230;12.856;2023-06-24T07:07:26;23.60;57.90
15543;DHT22;7873;52.230;12.856;2023-06-24T07:09:52;23.50;58.50
15543;DHT22;7873;52.230;12.856;2023-06-24T07:12:19;23.30;57.80
15543;DHT22;7873;52.230;12.856;2023-06-24T07:14:50;23.40;58.00
15543;DHT22;7873;52.230;12.856;2023-06-24T07:17:17;23.40;57.80
15543;DHT22;7873;52.230;12.856;2023-06-24T07:19:43;23.30;58.70
15543;DHT22;7873;52.230;12.856;2023-06-24T07:22:10;23.40;58.50
15543;DHT22;7873;52.230;12.856;2023-06-24T07:24:37;23.20;58.30
15543;DHT22;7873;52.230;12.856;2023-06-24T07:27:04;23.00;60.00
15543;DHT22;7873;52.230;12.856;2023-06-24T07:29:32;22.90;59.80
15543;DHT22;7873;52.230;12.856;2023-06-24T07:32:00;23.00;60.30
15543;DHT22;7873;52.230;12.856;2023-06-24T07:34:26;23.00;59.60
15543;DHT22;7873;52.230;12.856;2023-06-24T07:36:53;23.10;59.20
15543;DHT22;7873;52.230;12.856;2023-06-24T07:39:20;23.00;58.20
15543;DHT22;7873;52.230;12.856;2023-06-24T07:41:46;23.00;58.30
15543;DHT22;7873;52.230;12.856;2023-06-24T07:44:13;23.10;58.20
15543;DHT22;7873;52.230;12.856;2023-06-24T07:46:40;23.10;57.90
15543;DHT22;7873;52.230;12.856;2023-06-24T07:49:08;23.00;57.90
15543;DHT22;7873;52.230;12.856;2023-06-24T07:51:34;23.00;58.30
15543;DHT22;7873;52.230;12.856;2023-06-24T07:54:01;23.10;58.00
15543;DHT22;7873;52.230;12.856;2023-06-24T07:56:28;22.90;57.70
15543;DHT22;7873;52.230;12.856;2023-06-24T07:58:54;22.90;57.30
15543;DHT22;7873;52.230;12.856;2023-06-24T08:01:21;22.80;57.10
15543;DHT22;7873;52.230;12.856;2023-06-24T08:03:48;23.10;57.60
15543;DHT22;7873;52.230;12.856;2023-06-24T08:06:16;22.90;58.00
15543;DHT22;7873;52.230;12.856;2023-06-24T08:08:43;23.00;57.90
15543;DHT22;7873;52.230;12.856;2023-06-24T08:11:11;23.00;57.90
15543;DHT22;7873;52.230;12.856;2023-06-24T08:13:38;23.00;57.90
15543;DHT22;7873;52.230;12.856;2023-06-24T08:16:04;22.80;58.40
15543;DHT22;7873;52.230;12.856;2023-06-24T08:18:31;23.00;57.90
15543;DHT22;7873;52.230;12.856;2023-06-24T08:20:59;23.00;57.80
15543;DHT22;7873;52.230;12.856;2023-06-24T08:23:27;22.90;58.00
15543;DHT22;7873;52.230;12.856;2023-06-24T08:25:53;22.80;58.40
15543;DHT22;7873;52.230;12.856;2023-06-24T08:28:20;22.80;57.80
15543;DHT22;7873;52.230;12.856;2023-06-24T08:30:46;23.00;57.60
15543;DHT22;7873;52.230;12.856;2023-06-24T08:33:13;23.00;57.90
15543;DHT22;7873;52.230;12.856;2023-06-24T08:35:40;23.00;57.80
15543;DHT22;7873;52.230;12.856;2023-06-24T08:38:06;23.00;57.20
15543;DHT22;7873;52.230;12.856;2023-06-24T08:40:34;22.90;57.30
15543;DHT22;7873;52.230;12.856;2023-06-24T08:43:05;22.90;57.60
15543;DHT22;7873;52.230;12.856;2023-06-24T08:45:32;22.80;57.90
15543;DHT22;7873;52.230;12.856;2023-06-24T08:47:58;22.80;58.30
15543;DHT22;7873;52.230;12.856;2023-06-24T08:50:29;22.80;58.20
15543;DHT22;7873;52.230;12.856;2023-06-24T08:52:59;22.80;58.10
15543;DHT22;7873;52.230;12.856;2023-06-24T08:55:31;22.70;58.10
15543;DHT22;7873;52.230;12.856;2023-06-24T08:58:04;22.80;57.90
15543;DHT22;7873;52.230;12.856;2023-06-24T09:00:30;22.80;58.00
15543;DHT22;7873;52.230;12.856;2023-06-24T09:02:57;22.70;57.40
15543;DHT22;7873;52.230;12.856;2023-06-24T09:05:24;22.60;56.90
15543;DHT22;7873;52.230;12.856;2023-06-24T09:07:51;22.60;57.40
15543;DHT22;7873;52.230;12.856;2023-06-24T09:10:30;22.70;57.70
15543;DHT22;7873;52.230;12.856;2023-06-24T09:12:58;23.00;58.00
15543;DHT22;7873;52.230;12.856;2023-06-24T09:15:26;23.00;57.50
15543;DHT22;7873;52.230;12.856;2023-06-24T09:17:56;22.80;56.20
15543;DHT22;7873;52.230;12.856;2023-06-24T09:20:22;22.70;56.30
15543;DHT22;7873;52.230;12.856;2023-06-24T09:22:50;22.80;56.10
15543;DHT22;7873;52.230;12.856;2023-06-24T09:25:17;22.90;56.10
15543;DHT22;7873;52.230;12.856;2023-06-24T09:27:47;22.90;55.60
15543;DHT22;7873;52.230;12.856;2023-06-24T09:30:17;22.90;55.40
15543;DHT22;7873;52.230;12.856;2023-06-24T09:32:47;23.00;54.60
15543;DHT22;7873;52.230;12.856;2023-06-24T09:35:14;23.10;54.90
15543;DHT22;7873;52.230;12.856;2023-06-24T09:37:40;23.20;54.80
15543;DHT22;7873;52.230;12.856;2023-06-24T09:40:08;23.20;53.90
15543;DHT22;7873;52.230;12.856;2023-06-24T09:42:35;23.20;54.20
15543;DHT22;7873;52.230;12.856;2023-06-24T09:45:04;23.30;54.30
15543;DHT22;7873;52.230;12.856;2023-06-24T09:47:31;23.50;53.80
15543;DHT22;7873;52.230;12.856;2023-06-24T09:49:59;23.30;54.60
15543;DHT22;7873;52.230;12.856;2023-06-24T09:52:26;23.20;54.30
15543;DHT22;7873;52.230;12.856;2023-06-24T09:54:54;23.20;53.70
15543;DHT22;7873;52.230;12.856;2023-06-24T09:57:23;23.00;54.30
15543;DHT22;7873;52.230;12.856;2023-06-24T09:59:53;23.10;54.20
15543;DHT22;7873;52.230;12.856;2023-06-24T10:02:19;23.10;54.20
15543;DHT22;7873;52.230;12.856;2023-06-24T10:04:46;23.20;54.40
15543;DHT22;7873;52.230;12.856;2023-06-24T10:07:16;23.40;55.00
15543;DHT22;7873;52.230;12.856;2023-06-24T10:09:44;23.40;54.40
15543;DHT22;7873;52.230;12.856;2023-06-24T10:12:10;23.50;54.90
15543;DHT22;7873;52.230;12.856;2023-06-24T10:14:37;23.40;53.90
15543;DHT22;7873;52.230;12.856;2023-06-24T10:17:04;23.10;53.70
15543;DHT22;7873;52.230;12.856;2023-06-24T10:19:37;23.00;54.20
15543;DHT22;7873;52.230;12.856;2023-06-24T10:22:04;23.00;53.50
15543;DHT22;7873;52.230;12.856;2023-06-24T10:24:36;23.10;53.70
15543;DHT22;7873;52.230;12.856;2023-06-24T10:27:05;23.10;53.20
15543;DHT22;7873;52.230;12.856;2023-06-24T10:29:33;23.10;53.40
15543;DHT22;7873;52.230;12.856;2023-06-24T10:32:02;23.10;53.50
15543;DHT22;7873;52.230;12.856;2023-06-24T10:34:31;23.10;53.50
15543;DHT22;7873;52.230;12.856;2023-06-24T10:37:07;23.40;53.30
15543;DHT22;7873;52.230;12.856;2023-06-24T10:39:37;23.40;52.80
15543;DHT22;7873;52.230;12.856;2023-06-24T10:45:13;23.20;53.90
15543;DHT22;7873;52.230;12.856;2023-06-24T10:47:41;23.20;53.10
15543;DHT22;7873;52.230;12.856;2023-06-24T10:50:10;23.30;53.20
15543;DHT22;7873;52.230;12.856;2023-06-24T10:52:38;23.50;53.50
15543;DHT22;7873;52.230;12.856;2023-06-24T10:55:08;23.60;53.10
15543;DHT22;7873;52.230;12.856;2023-06-24T10:57:36;23.80;52.70
15543;DHT22;7873;52.230;12.856;2023-06-24T11:00:03;23.90;52.70
15543;DHT22;7873;52.230;12.856;2023-06-24T11:02:30;24.10;52.50
15543;DHT22;7873;52.230;12.856;2023-06-24T11:04:57;24.30;51.40
15543;DHT22;7873;52.230;12.856;2023-06-24T11:07:25;24.10;52.20
15543;DHT22;7873;52.230;12.856;2023-06-24T11:09:54;23.90;51.10
15543;DHT22;7873;52.230;12.856;2023-06-24T11:12:24;23.90;51.40
15543;DHT22;7873;52.230;12.856;2023-06-24T11:14:52;24.00;51.80
15543;DHT22;7873;52.230;12.856;2023-06-24T11:17:22;24.20;51.80
15543;DHT22;7873;52.230;12.856;2023-06-24T11:19:48;24.20;51.70
15543;DHT22;7873;52.230;12.856;2023-06-24T11:22:15;24.20;51.90
15543;DHT22;7873;52.230;12.856;2023-06-24T11:24:42;24.10;52.20
15543;DHT22;7873;52.230;12.856;2023-06-24T11:27:09;24.10;52.30
15543;DHT22;7873;52.230;12.856;2023-06-24T11:29:40;24.20;51.90
15543;DHT22;7873;52.230;12.856;2023-06-24T11:32:09;24.20;51.90
15543;DHT22;7873;52.230;12.856;2023-06-24T11:34:37;24.10;51.60
15543;DHT22;7873;52.230;12.856;2023-06-24T11:37:11;24.40;51.60
15543;DHT22;7873;52.230;12.856;2023-06-24T11:39:38;24.50;51.30
15543;DHT22;7873;52.230;12.856;2023-06-24T11:42:06;24.40;51.30
15543;DHT22;7873;52.230;12.856;2023-06-24T11:44:33;24.30;51.80
15543;DHT22;7873;52.230;12.856;2023-06-24T11:47:05;24.30;51.60
15543;DHT22;7873;52.230;12.856;2023-06-24T11:49:43;24.10;52.20
15543;DHT22;7873;52.230;12.856;2023-06-24T11:52:14;24.30;51.90
15543;DHT22;7873;52.230;12.856;2023-06-24T11:54:41;24.50;51.60
15543;DHT22;7873;52.230;12.856;2023-06-24T11:57:08;24.60;51.40
15543;DHT22;7873;52.230;12.856;2023-06-24T11:59:35;24.60;51.40
15543;DHT22;7873;52.230;12.856;2023-06-24T12:02:02;24.60;51.30
15543;DHT22;7873;52.230;12.856;2023-06-24T12:04:31;24.60;51.20
15543;DHT22;7873;52.230;12.856;2023-06-24T12:06:58;24.50;51.70
15543;DHT22;7873;52.230;12.856;2023-06-24T12:09:25;24.40;52.00
15543;DHT22;7873;52.230;12.856;2023-06-24T12:11:52;24.50;51.90
15543;DHT22;7873;52.230;12.856;2023-06-24T12:14:19;24.60;51.70
15543;DHT22;7873;52.230;12.856;2023-06-24T12:16:46;24.40;52.10
15543;DHT22;7873;52.230;12.856;2023-06-24T12:19:14;24.60;51.90
15543;DHT22;7873;52.230;12.856;2023-06-24T12:21:41;24.60;51.80
15543;DHT22;7873;52.230;12.856;2023-06-24T12:24:07;24.50;51.80
15543;DHT22;7873;52.230;12.856;2023-06-24T12:26:34;24.50;52.10
15543;DHT22;7873;52.230;12.856;2023-06-24T12:29:02;24.60;52.00
15543;DHT22;7873;52.230;12.856;2023-06-24T12:31:28;24.30;51.50
15543;DHT22;7873;52.230;12.856;2023-06-24T12:33:55;24.40;52.40
15543;DHT22;7873;52.230;12.856;2023-06-24T12:36:23;24.50;52.20
15543;DHT22;7873;52.230;12.856;2023-06-24T12:38:50;24.60;52.20
15543;DHT22;7873;52.230;12.856;2023-06-24T12:41:16;24.60;52.10
15543;DHT22;7873;52.230;12.856;2023-06-24T12:43:43;24.50;51.50
15543;DHT22;7873;52.230;12.856;2023-06-24T12:46:10;24.30;52.00
15543;DHT22;7873;52.230;12.856;2023-06-24T12:48:36;24.50;52.20
15543;DHT22;7873;52.230;12.856;2023-06-24T12:51:03;24.60;52.30
15543;DHT22;7873;52.230;12.856;2023-06-24T12:53:31;24.40;51.40
15543;DHT22;7873;52.230;12.856;2023-06-24T12:55:58;24.50;52.30
15543;DHT22;7873;52.230;12.856;2023-06-24T12:58:24;24.50;51.90
15543;DHT22;7873;52.230;12.856;2023-06-24T13:00:52;24.40;52.80
15543;DHT22;7873;52.230;12.856;2023-06-24T13:03:18;24.40;52.80
15543;DHT22;7873;52.230;12.856;2023-06-24T13:05:45;24.40;52.70
15543;DHT22;7873;52.230;12.856;2023-06-24T13:08:12;24.50;52.70
15543;DHT22;7873;52.230;12.856;2023-06-24T13:10:40;24.40;52.70
15543;DHT22;7873;52.230;12.856;2023-06-24T13:13:07;24.50;52.80
15543;DHT22;7873;52.230;12.856;2023-06-24T13:15:34;24.50;52.80
15543;DHT22;7873;52.230;12.856;2023-06-24T13:18:01;24.50;52.60
15543;DHT22;7873;52.230;12.856;2023-06-24T13:20:28;23.90;51.50
15543;DHT22;7873;52.230;12.856;2023-06-24T13:22:55;24.10;53.60
15543;DHT22;7873;52.230;12.856;2023-06-24T13:25:21;24.10;51.80
15543;DHT22;7873;52.230;12.856;2023-06-24T13:27:49;24.10;52.90
15543;DHT22;7873;52.230;12.856;2023-06-24T13:30:16;24.20;52.70
15543;DHT22;7873;52.230;12.856;2023-06-24T13:32:43;24.30;51.50
15543;DHT22;7873;52.230;12.856;2023-06-24T13:35:10;24.20;51.00
15543;DHT22;7873;52.230;12.856;2023-06-24T13:37:36;24.10;54.30
15543;DHT22;7873;52.230;12.856;2023-06-24T13:40:05;24.20;53.40
15543;DHT22;7873;52.230;12.856;2023-06-24T13:42:33;24.20;53.40
15543;DHT22;7873;52.230;12.856;2023-06-24T13:45:01;24.20;53.40
15543;DHT22;7873;52.230;12.856;2023-06-24T13:47:27;24.00;52.90
15543;DHT22;7873;52.230;12.856;2023-06-24T13:49:54;24.20;53.10
15543;DHT22;7873;52.230;12.856;2023-06-24T13:52:22;24.30;53.30
15543;DHT22;7873;52.230;12.856;2023-06-24T13:54:49;24.10;51.40
15543;DHT22;7873;52.230;12.856;2023-06-24T13:57:16;24.20;53.60
15543;DHT22;7873;52.230;12.856;2023-06-24T13:59:42;24.10;53.20
15543;DHT22;7873;52.230;12.856;2023-06-24T14:02:10;24.10;53.80
15543;DHT22;7873;52.230;12.856;2023-06-24T14:04:37;24.10;53.90
15543;DHT22;7873;52.230;12.856;2023-06-24T14:07:05;24.10;53.90
15543;DHT22;7873;52.230;12.856;2023-06-24T14:09:32;24.10;53.90
15543;DHT22;7873;52.230;12.856;2023-06-24T14:11:59;24.10;54.10
15543;DHT22;7873;52.230;12.856;2023-06-24T14:14:26;24.10;54.50
15543;DHT22;7873;52.230;12.856;2023-06-24T14:16:53;24.00;54.70
15543;DHT22;7873;52.230;12.856;2023-06-24T14:19:21;24.10;55.00
15543;DHT22;7873;52.230;12.856;2023-06-24T14:21:47;24.10;55.00
15543;DHT22;7873;52.230;12.856;2023-06-24T14:24:14;24.10;55.30
15543;DHT22;7873;52.230;12.856;2023-06-24T14:26:41;24.10;55.00
15543;DHT22;7873;52.230;12.856;2023-06-24T14:29:07;24.10;54.60
15543;DHT22;7873;52.230;12.856;2023-06-24T14:31:34;24.10;55.00
15543;DHT22;7873;52.230;12.856;2023-06-24T14:34:01;24.20;55.00
15543;DHT22;7873;52.230;12.856;2023-06-24T14:36:29;24.30;54.80
15543;DHT22;7873;52.230;12.856;2023-06-24T14:38:55;24.20;54.90
15543;DHT22;7873;52.230;12.856;2023-06-24T14:41:22;24.20;55.10
15543;DHT22;7873;52.230;12.856;2023-06-24T14:43:49;24.20;55.20
15543;DHT22;7873;52.230;12.856;2023-06-24T14:46:15;24.20;55.10
15543;DHT22;7873;52.230;12.856;2023-06-24T14:48:43;24.20;55.00
15543;DHT22;7873;52.230;12.856;2023-06-24T14:51:10;24.20;55.00
15543;DHT22;7873;52.230;12.856;2023-06-24T14:53:38;24.20;54.90
15543;DHT22;7873;52.230;12.856;2023-06-24T14:56:05;24.30;54.40
15543;DHT22;7873;52.230;12.856;2023-06-24T14:58:32;24.30;55.20
15543;DHT22;7873;52.230;12.856;2023-06-24T15:00:58;24.30;54.50
15543;DHT22;7873;52.230;12.856;2023-06-24T15:03:25;24.30;54.50
15543;DHT22;7873;52.230;12.856;2023-06-24T15:05:52;24.30;54.40
15543;DHT22;7873;52.230;12.856;2023-06-24T15:08:18;24.30;54.50
15543;DHT22;7873;52.230;12.856;2023-06-24T15:10:46;24.30;54.50
15543;DHT22;7873;52.230;12.856;2023-06-24T15:13:13;24.30;54.50
15543;DHT22;7873;52.230;12.856;2023-06-24T15:15:40;24.30;54.50
15543;DHT22;7873;52.230;12.856;2023-06-24T15:18:06;24.30;54.50
15543;DHT22;7873;52.230;12.856;2023-06-24T15:20:33;24.30;54.40
15543;DHT22;7873;52.230;12.856;2023-06-24T15:23:00;24.30;54.30
15543;DHT22;7873;52.230;12.856;2023-06-24T15:25:26;24.30;54.40
15543;DHT22;7873;52.230;12.856;2023-06-24T15:27:57;24.30;54.50
15543;DHT22;7873;52.230;12.856;2023-06-24T15:30:24;24.30;54.50
15543;DHT22;7873;52.230;12.856;2023-06-24T15:32:51;24.30;53.80
15543;DHT22;7873;52.230;12.856;2023-06-24T15:35:18;24.30;52.50
15543;DHT22;7873;52.230;12.856;2023-06-24T15:37:45;24.40;52.60